Aviation Digital Data Service (ADDS)

Output produced by METARs form (2052 UTC 27 March 2015)
found at http://www.aviationweather.gov/adds/metars/
 
KLNS 271953Z 33012KT 10SM SCT050 07/M04 A2975 RMK AO2 SLP076 T00721039
KLNS 271853Z 32012G18KT 10SM CLR 07/M04 A2975 RMK AO2 SLP077 T00721039
KLNS 271753Z 34013KT 10SM SCT046 07/M04 A2977 RMK AO2 SLP083 T00671039 10067 20039 56011
KLNS 271653Z 35006KT 10SM OVC042 06/M02 A2978 RMK AO2 SLP085 T00561022
KLNS 271553Z 34012KT 10SM BKN041 OVC100 06/M03 A2979 RMK AO2 SLP090 T00561028
KLNS 271453Z 35007KT 10SM FEW033 SCT046 BKN110 06/M01 A2981 RMK AO2 SLP094 T00561011 53003
KLNS 271353Z 36005KT 10SM FEW042 BKN110 05/00 A2979 RMK AO2 SLP091 T00500000
KLNS 271253Z 35006KT 10SM OVC100 04/01 A2979 RMK AO2 SLP088 T00440006
KLNS 271153Z 33007KT 10SM SCT032 OVC070 04/01 A2980 RMK AO2 SLP091 60010 70076 T00390006 10061 20039 53001
KLNS 271105Z 36008KT 10SM SCT027 BKN070 OVC110 04/01 A2977 RMK AO2 T00390011
KLNS 271053Z 36007KT 10SM BKN026 OVC080 04/02 A2977 RMK AO2 RAE0959 SLP083 P0000 T00390017
KLNS 270953Z 35005KT 10SM -RA BKN021 OVC060 05/03 A2978 RMK AO2 SLP085 P0001 T00500028
KLNS 270904Z AUTO 32003KT 8SM -RA BKN020 OVC034 05/04 A2979 RMK AO2 P0000 T00500039
KLNS 270853Z AUTO 00000KT 9SM -RA SCT024 OVC032 05/04 A2979 RMK AO2 SLP089 P0004 60009 T00500039 53012
KLNS 270753Z AUTO 34006KT 8SM -RA OVC032 06/04 A2977 RMK AO2 SLP080 P0004 T00560039
KLNS 270734Z AUTO 34006KT 8SM -RA SCT023 OVC036 06/03 A2977 RMK AO2 P0002 T00560033
KLNS 270653Z AUTO 34004KT 10SM -RA BKN025 OVC070 06/03 A2978 RMK AO2 SLP086 P0001 T00560033
KLNS 270641Z AUTO 33005KT 10SM -RA BKN026 BKN037 OVC075 06/03 A2979 RMK AO2 P0000 T00610033
KLNS 270633Z AUTO 32005KT 10SM -RA SCT024 BKN050 OVC075 06/03 A2979 RMK AO2 P0000 T00610033
KLNS 270610Z AUTO 33005KT 10SM -RA BKN023 OVC085 06/04 A2977 RMK AO2 P0000 T00610039
KLNS 270553Z AUTO 33008KT 9SM -RA FEW025 SCT065 OVC085 06/04 A2976 RMK AO2 SLP077 P0002 60012 T00610039 10117 20061 53007
KLNS 270453Z AUTO 32008KT 8SM -RA FEW024 SCT055 OVC080 07/04 A2976 RMK AO2 RAB27 SLP077 P0001 T00670044 401890006
KLNS 270353Z AUTO 32008KT 10SM FEW020 BKN090 OVC110 07/04 A2974 RMK AO2 SLP071 T00720044
KLNS 270350Z AUTO 32008KT 10SM SCT020 BKN090 OVC110 07/04 A2974 RMK AO2
KLNS 270253Z AUTO 33007KT 10SM OVC017 08/05 A2973 RMK AO2 SLP068 60009 T00780050 51027
KLNS 270219Z 32011KT 10SM BKN019 BKN085 OVC110 08/06 A2973 RMK AO2 T00830056
KLNS 270153Z 33008KT 10SM SCT018 BKN080 OVC110 09/06 A2970 RMK AO2 SLP057 T00890061
KLNS 270138Z 33011KT 10SM SCT015 BKN075 OVC100 09/07 A2971 RMK AO2 T00940072
KLNS 270131Z 33008KT 10SM BKN016 OVC080 10/07 A2970 RMK AO2 T01000072
KLNS 270100Z 34011KT 9SM BKN014 OVC065 11/09 A2969 RMK AO2 T01110089
KLNS 270053Z 33009KT 9SM SCT017 BKN060 OVC100 11/09 A2968 RMK AO2 RAE45 SLP053 P0009 T01110089
KLNS 270000Z 33008KT 3SM +RA BR BKN045 OVC070 12/11 A2965 RMK AO2 LTG DSNT E P0002 T01170106
KLNS 262353Z 33007KT 2 1/2SM RA BR FEW031 BKN041 OVC070 12/11 A2965 RMK AO2 PK WND 30026/2258 WSHFT 2256 LTG DSNT NE AND E RAB03 TSB2257E21 SLP041 P0046 60046 T01170106 10189 20117 53014
KLNS 262337Z 31010KT 1 3/4SM +RA BR FEW027 BKN035 OVC065 12/11 A2966 RMK AO2 PK WND 30026/2258 WSHFT 2256 LTG DSNT NE AND E AND SW RAB03 TSB2257E21 P0039 T01170111
KLNS 262327Z 34011KT 2 1/2SM VCTS +RA BR FEW008 SCT020 OVC030 12/11 A2963 RMK AO2 PK WND 30026/2258 WSHFT 2256 LTG DSNT NE AND SW RAB03 TSB2257E21 P0030 T01220111
KLNS 262320Z 33013G18KT 2SM +TSRA BR FEW006 BKN030 OVC070 12/11 A2963 RMK AO2 PK WND 30026/2258 WSHFT 2256 LTG DSNT ALQDS RAB03 TSB2257 P0027 T01220111
KLNS 262316Z 34013G22KT 1 1/4SM +TSRA BR FEW006 BKN023 OVC090 13/12 A2962 RMK AO2 PK WND 30026/2258 WSHFT 2256 LTG DSNT ALQDS RAB03 TSB2257 P0025 T01280117
KLNS 262309Z 35015G26KT 1 3/4SM +TSRA BR SCT008 BKN020 OVC090 13/12 A2963 RMK AO2 PK WND 30026/2258 WSHFT 2250 LTG DSNT W-NE RAB03 TSB2257 P0018 T01330117
KLNS 262307Z 33018G26KT 3SM +TSRA BR FEW008 BKN070 OVC090 14/12 A2963 RMK AO2 PK WND 30026/2258 WSHFT 2250 LTG DSNT W-NE RAB03 TSB2257 PRESRR P0011 T01390117
KLNS 262300Z 30020G26KT 10SM TS FEW022 SCT070 OVC090 18/14 A2960 RMK AO2 PK WND 30026/2258 WSHFT 2246 LTG DSNT W-NE TSB2257 PRESRR T01780139
KLNS 262253Z 19012G22KT 10SM SCT070 BKN090 18/14 A2955 RMK AO2 LTG DSNT W-N SLP005 T01830144
KLNS 262153Z 18011G19KT 10SM FEW075 FEW095 18/14 A2955 RMK AO2 SLP008 T01830144
KLNS 262136Z 20011KT 10SM SCT017 BKN075 BKN095 19/15 A2958 RMK AO2 T01890150
KLNS 262053Z 18011G24KT 9SM OVC019 18/14 A2961 RMK AO2 SLP026 T01830144 56037
KLNS 262010Z 19011KT 8SM BKN015 OVC020 18/14 A2961 RMK AO2 T01830144
KLNS 261953Z 20013G20KT 7SM OVC011 17/14 A2962 RMK AO2 SLP032 T01720144
KLNS 261853Z 19013KT 7SM OVC011 16/13 A2966 RMK AO2 PRESFR SLP043 T01560133
KLNS 261842Z 19012KT 8SM OVC011 16/13 A2967 RMK AO2 PRESFR T01560133
KLNS 261753Z 23010G18KT 10SM OVC012 16/13 A2972 RMK AO2 SLP063 60008 T01560133 10156 20017 56051
KLNS 261713Z 18011KT 7SM BKN010 OVC013 14/13 A2974 RMK AO2 CIG 007V011 T01440128
KLNS 261705Z 17010KT 5SM BR BKN008 BKN022 OVC080 14/13 A2975 RMK AO2 CIG 007V015 T01440133
KLNS 261655Z 14007KT 5SM BR SCT008 BKN022 OVC070 14/12 A2975 RMK AO2 T01390122
KLNS 261653Z 14006KT 5SM BR SCT010 BKN070 OVC080 14/12 A2975 RMK AO2 RAE35 SLP076 P0004 T01390122
KLNS 261647Z 18004KT 3SM BR FEW008 BKN070 OVC085 13/12 A2976 RMK AO2 RAE35 P0004
KLNS 261639Z 00000KT 2SM BR FEW024 BKN070 OVC080 12/12 A2976 RMK AO2 LTG DSNT SE RAE35 P0004 T01220117
KLNS 261617Z 10007KT 1 1/4SM -RA BR FEW035 OVC055 09/09 A2978 RMK AO2 PRESFR P0003 T00940089
KLNS 261602Z 09005KT 2SM -RA BR BKN060 OVC080 09/08 A2981 RMK AO2 P0001 T00890078
KLNS 261553Z 08005KT 3SM -RA BR BKN070 OVC085 09/07 A2982 RMK AO2 RAB10 PRESFR SLP098 P0004 T00890072
KLNS 261529Z 09004KT 3SM -RA BR SCT015 BKN043 OVC090 08/07 A2984 RMK AO2 RAB10 P0002 T00830067
KLNS 261524Z 11004KT 2 1/2SM RA BR BKN015 BKN043 OVC085 08/07 A2985 RMK AO2 RAB10 P0002 T00830067
KLNS 261453Z 08003KT 5SM HZ OVC016 09/06 A2987 RMK AO2 SLP116 T00890056 58024
KLNS 261353Z 04006KT 4SM BR OVC015 07/05 A2989 RMK AO2 SLP123 T00720050
KLNS 261253Z 00000KT 3SM BR OVC017 05/04 A2992 RMK AO2 SLP136 T00500039
KLNS 261153Z 06003KT 3SM BR BKN016 BKN022 02/01 A2994 RMK AO2 SLP141 70003 T00170011 10028 20006 56023
KLNS 261144Z 10003KT 3SM BR SCT016 BKN022 BKN028 02/02 A2994 RMK AO2 T00170017
KLNS 261053Z 06004KT 3SM BR CLR 01/01 A2994 RMK AO2 SLP142 T00110006
KLNS 261018Z 08003KT 1 1/4SM BR CLR 01/01 A2996 RMK AO2 T00110011
KLNS 261006Z 07004KT 1/2SM FG CLR 01/01 A2997 RMK AO2 T00110006
KLNS 260951Z 08003KT 1 3/4SM BR CLR 02/01 A2997 RMK AO2 SLP152 T00170011
KLNS 260950Z AUTO 09003KT 1 3/4SM BR CLR 02/01 A2997 RMK AO2
KLNS 260939Z AUTO 10003KT 3SM BR CLR 02/02 A2998 RMK AO2 T00220017
KLNS 260931Z AUTO 09003KT 2 1/2SM BR CLR 02/02 A2998 RMK AO2 T00220017
KLNS 260919Z AUTO 00000KT 3SM BR CLR 02/02 A3000 RMK AO2 T00220017
KLNS 260912Z AUTO 10003KT 2 1/2SM BR CLR 02/02 A3000 RMK AO2 T00220017
KLNS 260853Z AUTO 00000KT 4SM BR CLR 02/02 A3001 RMK AO2 SLP165 T00220017 56024